createdAt,value
2022-11-06T00:00:18.365Z,1022.42
2022-11-06T00:01:19.043Z,1022.37
2022-11-06T00:02:20.908Z,1022.44
2022-11-06T00:03:21.330Z,1022.32
2022-11-06T00:04:21.942Z,1022.31
2022-11-06T00:05:22.583Z,1022.24
2022-11-06T00:06:23.183Z,1022.34
2022-11-06T00:07:23.779Z,1022.27
2022-11-06T00:08:24.379Z,1022.32
2022-11-06T00:09:24.983Z,1022.33
2022-11-06T00:10:25.579Z,1022.29
2022-11-06T00:11:26.175Z,1022.28
2022-11-06T00:12:26.925Z,1022.31
2022-11-06T00:13:27.573Z,1022.33
2022-11-06T00:14:28.169Z,1022.31
2022-11-06T00:15:28.771Z,1022.27
2022-11-06T00:16:29.369Z,1022.24
2022-11-06T00:17:30.060Z,1022.28
2022-11-06T00:18:30.663Z,1022.27
2022-11-06T00:19:31.261Z,1022.32
2022-11-06T00:20:31.928Z,1022.27
2022-11-06T00:21:32.533Z,1022.22
2022-11-06T00:22:33.136Z,1022.23
2022-11-06T00:23:33.738Z,1022.21
2022-11-06T00:24:34.342Z,1022.25
2022-11-06T00:25:34.944Z,1022.25
2022-11-06T00:26:35.547Z,1022.24
2022-11-06T00:27:37.001Z,1022.21
2022-11-06T00:28:37.604Z,1022.26
2022-11-06T00:29:39.059Z,1022.27
2022-11-06T00:30:40.510Z,1022.29
2022-11-06T00:31:41.162Z,1022.26
2022-11-06T00:32:41.764Z,1022.25
2022-11-06T00:33:42.434Z,1022.32
2022-11-06T00:34:43.030Z,1022.33
2022-11-06T00:35:43.634Z,1022.37
2022-11-06T00:36:44.234Z,1022.39
2022-11-06T00:37:44.833Z,1022.34
2022-11-06T00:38:45.435Z,1022.34
2022-11-06T00:39:46.030Z,1022.39
2022-11-06T00:40:46.630Z,1022.37
2022-11-06T00:41:47.230Z,1022.37
2022-11-06T00:42:48.081Z,1022.30
2022-11-06T00:43:48.827Z,1022.41
2022-11-06T00:44:49.576Z,1022.24
2022-11-06T00:45:50.173Z,1022.34
2022-11-06T00:46:50.772Z,1022.34
2022-11-06T00:47:51.372Z,1022.36
2022-11-06T00:48:51.974Z,1022.30
2022-11-06T00:49:52.571Z,1022.35
2022-11-06T00:50:53.170Z,1022.32
2022-11-06T00:51:53.774Z,1022.47
2022-11-06T00:52:54.371Z,1022.41
2022-11-06T00:53:54.978Z,1022.37
2022-11-06T00:54:55.646Z,1022.32
2022-11-06T00:55:56.248Z,1022.27
2022-11-06T00:56:56.850Z,1022.26
2022-11-06T00:57:57.447Z,1022.38
2022-11-06T00:58:58.048Z,1022.33
2022-11-06T00:59:58.648Z,1022.34
2022-11-06T01:00:59.251Z,1022.26
2022-11-06T01:01:59.947Z,1022.21
2022-11-06T01:03:00.738Z,1022.23
2022-11-06T01:04:01.457Z,1022.25
2022-11-06T01:05:02.052Z,1022.18
2022-11-06T01:06:02.654Z,1022.12
2022-11-06T01:07:03.254Z,1022.05
2022-11-06T01:08:03.853Z,1022.19
2022-11-06T01:09:04.475Z,1022.11
2022-11-06T01:10:05.068Z,1022.18
2022-11-06T01:11:05.673Z,1022.15
2022-11-06T01:12:14.466Z,1022.15
2022-11-06T01:13:07.858Z,1022.14
2022-11-06T01:14:08.462Z,1022.16
2022-11-06T01:15:09.145Z,1022.12
2022-11-06T01:16:09.719Z,1022.17
2022-11-06T01:17:10.317Z,1022.14
2022-11-06T01:18:11.168Z,1022.26
2022-11-06T01:19:12.023Z,1022.31
2022-11-06T01:20:12.620Z,1022.21
2022-11-06T01:21:13.221Z,1022.24
2022-11-06T01:22:13.820Z,1022.26
2022-11-06T01:23:14.414Z,1022.26
2022-11-06T01:24:15.043Z,1022.32
2022-11-06T01:25:15.662Z,1022.30
2022-11-06T01:26:28.865Z,1022.30
2022-11-06T01:27:26.355Z,1022.27
2022-11-06T01:28:19.447Z,1022.24
2022-11-06T01:29:20.045Z,1022.24
2022-11-06T01:30:20.718Z,1022.18
2022-11-06T01:31:21.305Z,1022.22
2022-11-06T01:32:21.952Z,1022.20
2022-11-06T01:33:22.553Z,1022.24
2022-11-06T01:34:23.151Z,1022.17
2022-11-06T01:35:23.751Z,1022.13
2022-11-06T01:36:24.418Z,1022.15
2022-11-06T01:37:25.017Z,1022.22
2022-11-06T01:38:25.611Z,1022.22
2022-11-06T01:39:26.209Z,1022.20
2022-11-06T01:40:26.812Z,1022.23
2022-11-06T01:41:27.408Z,1022.25
2022-11-06T01:42:28.014Z,1022.28
2022-11-06T01:43:28.615Z,1022.32
2022-11-06T01:44:29.218Z,1022.33
2022-11-06T01:45:29.813Z,1022.39
2022-11-06T01:46:30.419Z,1022.40
2022-11-06T01:47:31.869Z,1022.35
2022-11-06T01:48:33.323Z,1022.37
2022-11-06T01:49:33.925Z,1022.31
2022-11-06T01:50:34.527Z,1022.29
2022-11-06T01:51:35.128Z,1022.33
2022-11-06T01:52:35.730Z,1022.33
2022-11-06T01:53:36.330Z,1022.28
2022-11-06T01:54:36.929Z,1022.34
2022-11-06T01:55:37.531Z,1022.34
2022-11-06T01:56:38.131Z,1022.34
2022-11-06T01:57:38.731Z,1022.34
2022-11-06T01:58:39.326Z,1022.40
2022-11-06T01:59:40.077Z,1022.28
2022-11-06T02:00:40.675Z,1022.26
2022-11-06T02:01:41.371Z,1022.37
2022-11-06T02:02:42.914Z,1022.33
2022-11-06T02:03:43.563Z,1022.28
2022-11-06T02:04:44.165Z,1022.18
2022-11-06T02:05:44.811Z,1022.26
2022-11-06T02:06:45.409Z,1022.29
2022-11-06T02:07:46.008Z,1022.17
2022-11-06T02:08:46.607Z,1022.16
2022-11-06T02:09:47.210Z,1022.15
2022-11-06T02:10:47.808Z,1022.06
2022-11-06T02:11:48.407Z,1022.05
2022-11-06T02:12:49.011Z,1022.07
2022-11-06T02:13:49.607Z,1022.04
2022-11-06T02:14:50.212Z,1022.03
2022-11-06T02:15:50.897Z,1022.03
2022-11-06T02:16:51.484Z,1021.99
2022-11-06T02:17:52.085Z,1022.01
2022-11-06T02:18:52.687Z,1022.08
2022-11-06T02:19:53.283Z,1022.11
2022-11-06T02:20:53.889Z,1022.14
2022-11-06T02:21:54.489Z,1022.14
2022-11-06T02:22:55.941Z,1022.21
2022-11-06T02:23:56.541Z,1022.22
2022-11-06T02:24:57.142Z,1022.19
2022-11-06T02:25:57.743Z,1022.17
2022-11-06T02:26:58.343Z,1022.25
2022-11-06T02:27:58.944Z,1022.21
2022-11-06T02:28:59.547Z,1022.28
2022-11-06T02:30:00.155Z,1022.19
2022-11-06T02:31:00.747Z,1022.27
2022-11-06T02:32:01.343Z,1022.22
2022-11-06T02:33:01.945Z,1022.21
2022-11-06T02:34:02.542Z,1022.27
2022-11-06T02:35:03.142Z,1022.31
2022-11-06T02:36:03.744Z,1022.30
2022-11-06T02:37:04.353Z,1022.30
2022-11-06T02:38:04.940Z,1022.25
2022-11-06T02:39:05.587Z,1022.22
2022-11-06T02:40:06.255Z,1022.20
2022-11-06T02:41:06.851Z,1022.22
2022-11-06T02:42:07.449Z,1022.26
2022-11-06T02:43:08.054Z,1022.18
2022-11-06T02:44:08.653Z,1022.26
2022-11-06T02:45:09.254Z,1022.25
2022-11-06T02:46:09.853Z,1022.21
2022-11-06T02:47:10.457Z,1022.21
2022-11-06T02:48:11.393Z,1022.09
2022-11-06T02:49:12.236Z,1022.19
2022-11-06T02:50:12.835Z,1022.12
2022-11-06T02:51:13.438Z,1022.10
2022-11-06T02:52:14.038Z,1022.07
2022-11-06T02:53:14.638Z,1022.02
2022-11-06T02:54:15.236Z,1022.07
2022-11-06T02:55:15.837Z,1022.08
2022-11-06T02:56:16.436Z,1022.06
2022-11-06T02:57:17.090Z,1022.10
2022-11-06T02:58:17.687Z,1022.10
2022-11-06T02:59:18.287Z,1022.04
2022-11-06T03:00:18.887Z,1021.99
2022-11-06T03:01:19.639Z,1022.03
2022-11-06T03:02:20.290Z,1022.05
2022-11-06T03:03:20.999Z,1022.04
2022-11-06T03:04:22.445Z,1021.90
2022-11-06T03:05:23.047Z,1021.92
2022-11-06T03:06:23.644Z,1021.99
2022-11-06T03:07:24.246Z,1021.97
2022-11-06T03:08:24.845Z,1021.93
2022-11-06T03:09:25.446Z,1021.89
2022-11-06T03:10:26.095Z,1021.82
2022-11-06T03:11:26.696Z,1021.89
2022-11-06T03:12:27.295Z,1021.95
2022-11-06T03:13:27.899Z,1021.92
2022-11-06T03:14:28.496Z,1021.89
2022-11-06T03:15:29.098Z,1021.93
2022-11-06T03:16:29.697Z,1021.97
2022-11-06T03:17:30.295Z,1021.98
2022-11-06T03:18:30.895Z,1021.92
2022-11-06T03:19:31.497Z,1021.94
2022-11-06T03:20:32.097Z,1021.88
2022-11-06T03:21:32.713Z,1021.90
2022-11-06T03:22:33.292Z,1021.91
2022-11-06T03:23:33.895Z,1021.86
2022-11-06T03:24:34.505Z,1021.89
2022-11-06T03:25:35.131Z,1021.88
2022-11-06T03:26:35.732Z,1021.98
2022-11-06T03:27:36.334Z,1021.95
2022-11-06T03:28:36.930Z,1021.90
2022-11-06T03:29:37.585Z,1021.82
2022-11-06T03:30:38.186Z,1021.90
2022-11-06T03:31:38.785Z,1021.83
2022-11-06T03:32:39.387Z,1021.83
2022-11-06T03:33:39.988Z,1021.86
2022-11-06T03:34:40.590Z,1021.80
2022-11-06T03:35:41.193Z,1021.79
2022-11-06T03:36:41.864Z,1021.81
2022-11-06T03:37:42.534Z,1021.89
2022-11-06T03:38:43.130Z,1021.88
2022-11-06T03:39:43.740Z,1021.84
2022-11-06T03:40:44.334Z,1021.83
2022-11-06T03:41:45.000Z,1021.82
2022-11-06T03:42:45.598Z,1021.85
2022-11-06T03:43:46.252Z,1021.72
2022-11-06T03:44:46.852Z,1021.70
2022-11-06T03:45:47.454Z,1021.67
2022-11-06T03:46:48.113Z,1021.54
2022-11-06T03:47:48.715Z,1021.60
2022-11-06T03:48:49.316Z,1021.59
2022-11-06T03:49:49.916Z,1021.54
2022-11-06T03:50:50.555Z,1021.64
2022-11-06T03:51:51.153Z,1021.57
2022-11-06T03:52:53.208Z,1021.64
2022-11-06T03:53:52.413Z,1021.67
2022-11-06T03:54:53.016Z,1021.73
2022-11-06T03:55:53.609Z,1021.67
2022-11-06T03:56:54.207Z,1021.62
2022-11-06T03:57:54.808Z,1021.55
2022-11-06T03:58:55.459Z,1021.51
2022-11-06T03:59:56.062Z,1021.48
2022-11-06T04:00:56.665Z,1021.43
2022-11-06T04:01:57.426Z,1021.40
2022-11-06T04:02:58.208Z,1021.42
2022-11-06T04:03:58.942Z,1021.41
2022-11-06T04:04:59.539Z,1021.46
2022-11-06T04:06:00.255Z,1021.41
2022-11-06T04:07:00.853Z,1021.33
2022-11-06T04:08:01.461Z,1021.33
2022-11-06T04:09:02.056Z,1021.32
2022-11-06T04:10:02.656Z,1021.32
2022-11-06T04:11:03.254Z,1021.38
2022-11-06T04:12:03.853Z,1021.38
2022-11-06T04:13:04.455Z,1021.37
2022-11-06T04:14:05.056Z,1021.38
2022-11-06T04:15:05.808Z,1021.43
2022-11-06T04:16:06.413Z,1021.32
2022-11-06T04:17:07.015Z,1021.41
2022-11-06T04:18:07.613Z,1021.34
2022-11-06T04:19:08.212Z,1021.37
2022-11-06T04:20:08.814Z,1021.37
2022-11-06T04:21:09.410Z,1021.38
2022-11-06T04:22:10.015Z,1021.37
2022-11-06T04:23:10.615Z,1021.27
2022-11-06T04:24:11.213Z,1021.36
2022-11-06T04:25:11.809Z,1021.38
2022-11-06T04:26:12.408Z,1021.31
2022-11-06T04:27:13.008Z,1021.31
2022-11-06T04:28:13.990Z,1021.31
2022-11-06T04:29:14.810Z,1021.36
2022-11-06T04:30:15.407Z,1021.27
2022-11-06T04:31:16.055Z,1021.38
2022-11-06T04:32:16.652Z,1021.35
2022-11-06T04:33:17.251Z,1021.37
2022-11-06T04:34:18.700Z,1021.36
2022-11-06T04:35:19.300Z,1021.38
2022-11-06T04:36:19.897Z,1021.34
2022-11-06T04:37:20.496Z,1021.40
2022-11-06T04:38:21.100Z,1021.34
2022-11-06T04:39:21.698Z,1021.21
2022-11-06T04:40:22.300Z,1021.22
2022-11-06T04:41:22.902Z,1021.22
2022-11-06T04:42:23.506Z,1021.23
2022-11-06T04:43:24.107Z,1021.27
2022-11-06T04:44:24.709Z,1021.27
2022-11-06T04:45:25.311Z,1021.19
2022-11-06T04:46:25.914Z,1021.17
2022-11-06T04:47:26.513Z,1021.14
2022-11-06T04:48:27.143Z,1020.97
2022-11-06T04:49:27.782Z,1020.97
2022-11-06T04:50:28.383Z,1020.96
2022-11-06T04:51:29.062Z,1020.92
2022-11-06T04:52:29.643Z,1020.94
2022-11-06T04:53:30.243Z,1020.86
2022-11-06T04:54:30.844Z,1020.86
2022-11-06T04:55:31.460Z,1020.88
2022-11-06T04:56:35.043Z,1020.88
2022-11-06T04:57:33.630Z,1020.78
2022-11-06T04:58:34.236Z,1020.82
2022-11-06T04:59:34.828Z,1020.76
2022-11-06T05:00:35.532Z,1020.69
2022-11-06T05:01:36.289Z,1020.69
2022-11-06T05:02:36.917Z,1020.74
2022-11-06T05:03:37.509Z,1020.64
2022-11-06T05:04:38.111Z,1020.68
2022-11-06T05:05:38.724Z,1020.78
2022-11-06T05:06:39.465Z,1020.80
2022-11-06T05:07:40.056Z,1020.83
2022-11-06T05:08:40.656Z,1020.85
2022-11-06T05:09:41.254Z,1020.85
2022-11-06T05:10:41.853Z,1020.87
2022-11-06T05:11:42.450Z,1020.87
2022-11-06T05:12:43.054Z,1020.89
2022-11-06T05:13:43.650Z,1020.95
2022-11-06T05:14:44.253Z,1020.93
2022-11-06T05:15:44.856Z,1020.94
2022-11-06T05:16:45.460Z,1020.96
2022-11-06T05:17:46.177Z,1021.00
2022-11-06T05:18:46.741Z,1020.96
2022-11-06T05:19:47.343Z,1021.05
2022-11-06T05:20:47.945Z,1021.06
2022-11-06T05:21:48.597Z,1021.05
2022-11-06T05:22:49.198Z,1020.99
2022-11-06T05:23:49.801Z,1021.02
2022-11-06T05:24:50.404Z,1021.07
2022-11-06T05:25:51.004Z,1021.06
2022-11-06T05:26:57.855Z,1021.05
2022-11-06T05:27:53.203Z,1021.11
2022-11-06T05:28:53.796Z,1021.03
2022-11-06T05:29:54.395Z,1021.04
2022-11-06T05:30:54.997Z,1021.04
2022-11-06T05:31:55.592Z,1021.09
2022-11-06T05:32:56.428Z,1021.05
2022-11-06T05:33:57.005Z,1021.06
2022-11-06T05:34:57.716Z,1021.13
2022-11-06T05:35:58.313Z,1021.03
2022-11-06T05:36:58.914Z,1021.09
2022-11-06T05:37:59.579Z,1021.08
2022-11-06T05:39:00.180Z,1021.06
2022-11-06T05:40:00.778Z,1021.06
2022-11-06T05:41:01.380Z,1021.10
2022-11-06T05:42:01.979Z,1021.10
2022-11-06T05:43:02.628Z,1021.01
2022-11-06T05:44:03.234Z,1021.01
2022-11-06T05:45:03.828Z,1021.01
2022-11-06T05:46:04.427Z,1021.01
2022-11-06T05:47:05.028Z,1021.05
2022-11-06T05:48:06.111Z,1021.03
2022-11-06T05:49:06.706Z,1021.05
2022-11-06T05:50:07.302Z,1021.03
2022-11-06T05:51:07.902Z,1021.00
2022-11-06T05:52:08.502Z,1020.94
2022-11-06T05:53:09.103Z,1020.90
2022-11-06T05:54:09.773Z,1020.90
2022-11-06T05:55:14.675Z,1020.77
2022-11-06T05:56:11.965Z,1020.72
2022-11-06T05:57:12.565Z,1020.77
2022-11-06T05:58:13.400Z,1020.83
2022-11-06T05:59:14.189Z,1020.72
2022-11-06T06:00:14.789Z,1020.84
2022-11-06T06:01:15.385Z,1020.86
2022-11-06T06:02:16.105Z,1020.95
2022-11-06T06:03:16.777Z,1020.97
2022-11-06T06:04:17.361Z,1020.97
2022-11-06T06:05:17.958Z,1021.05
2022-11-06T06:06:18.558Z,1020.94
2022-11-06T06:07:19.156Z,1020.93
2022-11-06T06:08:19.758Z,1020.99
2022-11-06T06:09:20.357Z,1020.90
2022-11-06T06:10:20.957Z,1021.03
2022-11-06T06:11:21.553Z,1020.89
2022-11-06T06:12:22.151Z,1020.86
2022-11-06T06:13:22.755Z,1020.89
2022-11-06T06:14:23.418Z,1020.88
2022-11-06T06:15:24.068Z,1020.92
2022-11-06T06:16:24.669Z,1020.92
2022-11-06T06:17:25.267Z,1020.98
2022-11-06T06:18:25.928Z,1020.98
2022-11-06T06:19:27.424Z,1020.98
2022-11-06T06:20:28.025Z,1020.98
2022-11-06T06:21:28.621Z,1020.95
2022-11-06T06:22:29.223Z,1020.90
2022-11-06T06:23:29.822Z,1020.93
2022-11-06T06:24:30.475Z,1020.89
2022-11-06T06:25:31.100Z,1020.88
2022-11-06T06:26:31.701Z,1020.85
2022-11-06T06:27:32.302Z,1020.84
2022-11-06T06:28:32.969Z,1020.79
2022-11-06T06:29:33.586Z,1020.78
2022-11-06T06:30:34.236Z,1020.81
2022-11-06T06:31:35.737Z,1020.92
2022-11-06T06:32:36.340Z,1020.84
2022-11-06T06:33:36.984Z,1020.80
2022-11-06T06:34:37.583Z,1020.81
2022-11-06T06:35:39.149Z,1020.86
2022-11-06T06:36:39.796Z,1020.91
2022-11-06T06:37:40.391Z,1020.91
2022-11-06T06:38:40.989Z,1020.81
2022-11-06T06:39:41.585Z,1020.91
2022-11-06T06:40:42.184Z,1020.92
2022-11-06T06:41:42.784Z,1020.89
2022-11-06T06:42:43.382Z,1020.91
2022-11-06T06:43:43.990Z,1020.97
2022-11-06T06:44:44.580Z,1021.01
2022-11-06T06:45:45.178Z,1020.97
2022-11-06T06:46:45.779Z,1021.05
2022-11-06T06:47:46.376Z,1021.04
2022-11-06T06:48:47.107Z,1021.00
2022-11-06T06:49:47.691Z,1021.01
2022-11-06T06:50:48.292Z,1020.92
2022-11-06T06:51:48.892Z,1021.02
2022-11-06T06:52:49.489Z,1020.99
2022-11-06T06:53:50.092Z,1021.01
2022-11-06T06:54:50.691Z,1021.04
2022-11-06T06:55:51.290Z,1021.00
2022-11-06T06:56:51.892Z,1021.04
2022-11-06T06:57:52.490Z,1021.03
2022-11-06T06:58:53.089Z,1021.11
2022-11-06T06:59:53.689Z,1021.05
2022-11-06T07:00:54.322Z,1021.07
2022-11-06T07:01:55.084Z,1021.15
2022-11-06T07:02:55.713Z,1021.08
2022-11-06T07:04:01.360Z,1021.20
2022-11-06T07:04:57.020Z,1021.16
2022-11-06T07:05:57.641Z,1021.22
2022-11-06T07:06:58.239Z,1021.19
2022-11-06T07:07:58.839Z,1021.26
2022-11-06T07:08:59.441Z,1021.29
2022-11-06T07:10:00.043Z,1021.23
2022-11-06T07:11:00.642Z,1021.29
2022-11-06T07:12:01.236Z,1021.30
2022-11-06T07:13:01.840Z,1021.28
2022-11-06T07:14:02.435Z,1021.24
2022-11-06T07:15:03.036Z,1021.31
2022-11-06T07:16:03.651Z,1021.30
2022-11-06T07:17:04.294Z,1021.30
2022-11-06T07:18:04.917Z,1021.38
2022-11-06T07:19:05.497Z,1021.40
2022-11-06T07:20:06.093Z,1021.48
2022-11-06T07:21:06.693Z,1021.52
2022-11-06T07:22:07.297Z,1021.54
2022-11-06T07:23:07.899Z,1021.50
2022-11-06T07:24:08.496Z,1021.50
2022-11-06T07:25:09.096Z,1021.50
2022-11-06T07:26:09.697Z,1021.51
2022-11-06T07:27:10.289Z,1021.49
2022-11-06T07:28:10.891Z,1021.45
2022-11-06T07:29:11.491Z,1021.46
2022-11-06T07:30:12.096Z,1021.49
2022-11-06T07:31:12.742Z,1021.53
2022-11-06T07:32:14.244Z,1021.51
2022-11-06T07:33:14.854Z,1021.62
2022-11-06T07:34:15.459Z,1021.63
2022-11-06T07:35:16.057Z,1021.70
2022-11-06T07:36:16.977Z,1021.71
2022-11-06T07:37:17.625Z,1021.70
2022-11-06T07:38:18.341Z,1021.70
2022-11-06T07:39:18.945Z,1021.77
2022-11-06T07:40:19.539Z,1021.81
2022-11-06T07:41:20.136Z,1021.85
2022-11-06T07:42:20.737Z,1021.81
2022-11-06T07:43:21.336Z,1021.89
2022-11-06T07:44:21.939Z,1021.89
2022-11-06T07:45:22.537Z,1021.89
2022-11-06T07:46:23.131Z,1021.91
2022-11-06T07:47:23.727Z,1021.86
2022-11-06T07:48:24.326Z,1021.97
2022-11-06T07:49:25.045Z,1021.99
2022-11-06T07:50:25.605Z,1021.95
2022-11-06T07:51:26.204Z,1022.00
2022-11-06T07:52:26.801Z,1021.99
2022-11-06T07:53:27.398Z,1022.06
2022-11-06T07:54:27.998Z,1022.11
2022-11-06T07:55:28.596Z,1022.11
2022-11-06T07:56:29.195Z,1022.16
2022-11-06T07:57:29.794Z,1022.12
2022-11-06T07:58:30.644Z,1022.15
2022-11-06T07:59:31.241Z,1022.13
2022-11-06T08:00:31.837Z,1022.13
2022-11-06T08:01:32.521Z,1022.20
2022-11-06T08:02:33.225Z,1022.21
2022-11-06T08:03:33.838Z,1022.19
2022-11-06T08:04:34.438Z,1022.22
2022-11-06T08:05:35.048Z,1022.20
2022-11-06T08:06:35.636Z,1022.18
2022-11-06T08:07:36.235Z,1022.24
2022-11-06T08:08:36.834Z,1022.21
2022-11-06T08:09:37.430Z,1022.34
2022-11-06T08:10:38.038Z,1022.41
2022-11-06T08:11:38.632Z,1022.41
2022-11-06T08:12:39.231Z,1022.41
2022-11-06T08:13:39.833Z,1022.35
2022-11-06T08:14:41.680Z,1022.43
2022-11-06T08:15:42.026Z,1022.44
2022-11-06T08:16:42.624Z,1022.45
2022-11-06T08:17:43.250Z,1022.46
2022-11-06T08:18:43.847Z,1022.55
2022-11-06T08:19:44.535Z,1022.39
2022-11-06T08:20:45.383Z,1022.40
2022-11-06T08:21:45.985Z,1022.43
2022-11-06T08:22:46.583Z,1022.40
2022-11-06T08:23:47.198Z,1022.37
2022-11-06T08:24:47.786Z,1022.38
2022-11-06T08:25:48.384Z,1022.40
2022-11-06T08:26:48.977Z,1022.37
2022-11-06T08:27:49.577Z,1022.39
2022-11-06T08:28:50.181Z,1022.34
2022-11-06T08:29:50.774Z,1022.34
2022-11-06T08:30:51.372Z,1022.39
2022-11-06T08:31:51.970Z,1022.41
2022-11-06T08:32:52.568Z,1022.39
2022-11-06T08:33:53.165Z,1022.42
2022-11-06T08:34:53.764Z,1022.39
2022-11-06T08:35:54.512Z,1022.53
2022-11-06T08:36:55.113Z,1022.45
2022-11-06T08:37:55.707Z,1022.51
2022-11-06T08:38:56.453Z,1022.58
2022-11-06T08:39:57.902Z,1022.64
2022-11-06T08:40:58.497Z,1022.55
2022-11-06T08:41:59.144Z,1022.57
2022-11-06T08:42:59.746Z,1022.67
2022-11-06T08:44:00.342Z,1022.56
2022-11-06T08:45:00.944Z,1022.58
2022-11-06T08:46:01.541Z,1022.61
2022-11-06T08:47:02.143Z,1022.66
2022-11-06T08:48:02.750Z,1022.62
2022-11-06T08:49:03.797Z,1022.70
2022-11-06T08:50:04.437Z,1022.61
2022-11-06T08:51:05.034Z,1022.56
2022-11-06T08:52:05.638Z,1022.67
2022-11-06T08:53:06.235Z,1022.65
2022-11-06T08:54:06.988Z,1022.60
2022-11-06T08:55:07.576Z,1022.71
2022-11-06T08:56:08.179Z,1022.71
2022-11-06T08:57:08.781Z,1022.76
2022-11-06T08:58:09.378Z,1022.87
2022-11-06T08:59:09.974Z,1022.83
2022-11-06T09:00:10.570Z,1022.92
2022-11-06T09:01:11.243Z,1022.89
2022-11-06T09:02:11.919Z,1022.96
2022-11-06T09:03:12.870Z,1022.98
2022-11-06T09:04:13.688Z,1022.97
2022-11-06T09:05:14.284Z,1023.00
2022-11-06T09:06:14.882Z,1023.06
2022-11-06T09:07:15.483Z,1023.02
2022-11-06T09:08:16.110Z,1023.06
2022-11-06T09:09:16.704Z,1023.06
2022-11-06T09:10:17.299Z,1023.03
2022-11-06T09:11:17.898Z,1022.96
2022-11-06T09:12:18.495Z,1022.95
2022-11-06T09:13:19.096Z,1022.90
2022-11-06T09:14:19.691Z,1022.93
2022-11-06T09:15:20.298Z,1022.92
2022-11-06T09:16:20.894Z,1022.90
2022-11-06T09:17:21.497Z,1022.90
2022-11-06T09:18:22.098Z,1022.94
2022-11-06T09:19:22.700Z,1022.94
2022-11-06T09:20:23.302Z,1022.94
2022-11-06T09:21:23.901Z,1022.92
2022-11-06T09:22:24.503Z,1022.96
2022-11-06T09:23:25.106Z,1023.00
2022-11-06T09:24:49.707Z,1022.99
2022-11-06T09:25:27.302Z,1023.01
2022-11-06T09:26:27.897Z,1023.05
2022-11-06T09:27:28.497Z,1023.01
2022-11-06T09:28:29.098Z,1023.09
2022-11-06T09:29:29.766Z,1023.09
2022-11-06T09:30:30.366Z,1023.11
2022-11-06T09:31:30.961Z,1023.17
2022-11-06T09:32:31.559Z,1023.14
2022-11-06T09:33:32.154Z,1023.15
2022-11-06T09:34:32.755Z,1023.15
2022-11-06T09:35:33.350Z,1023.11
2022-11-06T09:36:33.951Z,1023.20
2022-11-06T09:37:34.547Z,1023.11
2022-11-06T09:38:35.174Z,1023.14
2022-11-06T09:39:35.744Z,1023.14
2022-11-06T09:40:36.347Z,1023.10
2022-11-06T09:41:37.792Z,1023.18
2022-11-06T09:42:38.440Z,1023.17
2022-11-06T09:44:40.631Z,1023.15
2022-11-06T09:45:41.284Z,1023.17
2022-11-06T09:46:41.882Z,1023.11
2022-11-06T09:47:42.533Z,1023.20
2022-11-06T09:48:43.133Z,1023.15
2022-11-06T09:49:43.733Z,1023.14
2022-11-06T09:50:44.333Z,1023.10
2022-11-06T09:51:44.932Z,1023.25
2022-11-06T09:52:45.687Z,1023.17
2022-11-06T09:53:46.743Z,1023.21
2022-11-06T09:54:50.856Z,1023.17
2022-11-06T09:55:49.065Z,1023.12
2022-11-06T09:56:49.917Z,1023.11
2022-11-06T09:57:50.588Z,1023.10
2022-11-06T09:58:51.242Z,1022.94
2022-11-06T09:59:52.647Z,1023.02
2022-11-06T10:00:53.389Z,1023.01
2022-11-06T10:01:54.149Z,1022.98
2022-11-06T10:02:54.854Z,1023.06
2022-11-06T10:03:55.531Z,1023.01
2022-11-06T10:04:56.152Z,1022.93
2022-11-06T10:05:56.763Z,1023.01
2022-11-06T10:06:57.354Z,1022.93
2022-11-06T10:07:57.959Z,1022.90
2022-11-06T10:08:58.595Z,1022.99
2022-11-06T10:09:59.351Z,1023.05
2022-11-06T10:10:59.950Z,1023.05
2022-11-06T10:12:00.550Z,1023.02
2022-11-06T10:13:01.148Z,1023.02
2022-11-06T10:14:01.745Z,1022.99
2022-11-06T10:15:02.345Z,1023.05
2022-11-06T10:16:02.948Z,1023.02
2022-11-06T10:17:03.544Z,1022.96
2022-11-06T10:18:04.144Z,1022.96
2022-11-06T10:19:04.742Z,1022.89
2022-11-06T10:20:06.148Z,1023.03
2022-11-06T10:21:06.748Z,1022.98
2022-11-06T10:22:07.348Z,1023.04
2022-11-06T10:23:07.947Z,1023.03
2022-11-06T10:24:08.550Z,1022.96
2022-11-06T10:25:09.219Z,1022.89
2022-11-06T10:26:09.820Z,1022.86
2022-11-06T10:27:10.420Z,1022.97
2022-11-06T10:28:11.342Z,1022.84
2022-11-06T10:29:11.687Z,1022.91
2022-11-06T10:30:12.287Z,1022.89
2022-11-06T10:31:12.890Z,1022.97
2022-11-06T10:32:13.487Z,1022.96
2022-11-06T10:33:14.086Z,1023.01
2022-11-06T10:34:14.688Z,1023.03
2022-11-06T10:35:15.286Z,1022.99
2022-11-06T10:36:15.884Z,1023.01
2022-11-06T10:37:16.482Z,1022.96
2022-11-06T10:38:17.321Z,1022.97
2022-11-06T10:39:18.053Z,1022.99
2022-11-06T10:40:18.658Z,1022.99
2022-11-06T10:41:19.321Z,1022.95
2022-11-06T10:42:19.918Z,1022.97
2022-11-06T10:43:20.567Z,1022.96
2022-11-06T10:44:21.168Z,1023.04
2022-11-06T10:45:21.764Z,1022.99
2022-11-06T10:46:23.213Z,1022.95
2022-11-06T10:47:23.812Z,1022.97
2022-11-06T10:48:29.865Z,1023.00
2022-11-06T10:49:26.003Z,1023.05
2022-11-06T10:50:26.653Z,1022.92
2022-11-06T10:51:27.252Z,1022.94
2022-11-06T10:52:27.855Z,1022.96
2022-11-06T10:53:28.453Z,1022.95
2022-11-06T10:54:29.057Z,1022.97
2022-11-06T10:55:29.662Z,1022.94
2022-11-06T10:56:30.411Z,1022.99
2022-11-06T10:57:31.013Z,1022.93
2022-11-06T10:58:31.616Z,1022.99
2022-11-06T10:59:32.223Z,1022.99
2022-11-06T11:00:32.823Z,1022.97
2022-11-06T11:01:33.477Z,1023.10
2022-11-06T11:02:34.202Z,1022.97
2022-11-06T11:03:34.767Z,1023.03
2022-11-06T11:04:35.371Z,1023.05
2022-11-06T11:05:36.019Z,1023.08
2022-11-06T11:06:36.621Z,1023.08
2022-11-06T11:07:37.222Z,1023.10
2022-11-06T11:08:37.823Z,1023.14
2022-11-06T11:09:38.417Z,1023.20
2022-11-06T11:10:39.016Z,1023.11
2022-11-06T11:11:39.616Z,1023.05
2022-11-06T11:12:40.215Z,1023.05
2022-11-06T11:13:40.817Z,1023.08
2022-11-06T11:14:41.417Z,1023.03
2022-11-06T11:15:42.014Z,1023.03
2022-11-06T11:16:42.617Z,1023.08
2022-11-06T11:17:43.218Z,1023.09
2022-11-06T11:18:43.814Z,1023.08
2022-11-06T11:19:44.422Z,1023.07
2022-11-06T11:20:45.018Z,1023.10
2022-11-06T11:21:45.816Z,1023.13
2022-11-06T11:22:46.458Z,1023.07
2022-11-06T11:23:47.035Z,1023.04
2022-11-06T11:24:47.640Z,1022.99
2022-11-06T11:25:48.245Z,1023.03
2022-11-06T11:26:48.847Z,1023.02
2022-11-06T11:27:49.442Z,1022.99
2022-11-06T11:28:50.048Z,1023.00
2022-11-06T11:29:50.645Z,1023.03
2022-11-06T11:30:51.250Z,1022.97
2022-11-06T11:31:51.851Z,1023.02
2022-11-06T11:32:52.453Z,1022.95
2022-11-06T11:33:53.054Z,1023.03
2022-11-06T11:34:56.629Z,1022.96
2022-11-06T11:35:55.318Z,1022.96
2022-11-06T11:36:55.918Z,1022.94
2022-11-06T11:37:56.522Z,1022.97
2022-11-06T11:38:57.124Z,1022.95
2022-11-06T11:39:57.725Z,1023.05
2022-11-06T11:40:58.335Z,1023.02
2022-11-06T11:41:58.973Z,1023.01
2022-11-06T11:42:59.581Z,1022.99
2022-11-06T11:44:00.171Z,1022.93
2022-11-06T11:45:00.772Z,1022.94
2022-11-06T11:46:01.377Z,1023.02
2022-11-06T11:47:05.580Z,1022.91
2022-11-06T11:48:02.657Z,1022.98
2022-11-06T11:49:03.330Z,1022.91
2022-11-06T11:50:03.973Z,1022.96
2022-11-06T11:51:04.698Z,1022.95
2022-11-06T11:52:05.566Z,1022.95
2022-11-06T11:53:10.196Z,1023.00
2022-11-06T11:54:06.979Z,1023.00
2022-11-06T11:55:07.585Z,1023.00
2022-11-06T11:56:08.178Z,1022.96
2022-11-06T11:57:08.836Z,1022.95
2022-11-06T11:58:09.437Z,1022.92
2022-11-06T11:59:10.068Z,1022.95
2022-11-06T12:00:10.770Z,1022.96
2022-11-06T12:01:11.376Z,1022.93
2022-11-06T12:02:12.090Z,1022.93
2022-11-06T12:03:12.843Z,1022.93
2022-11-06T12:04:13.544Z,1022.91
2022-11-06T12:05:14.210Z,1022.85
2022-11-06T12:06:15.049Z,1022.91
2022-11-06T12:07:15.691Z,1022.89
2022-11-06T12:08:16.670Z,1022.87
2022-11-06T12:09:17.317Z,1022.84
2022-11-06T12:10:17.913Z,1022.77
2022-11-06T12:11:18.516Z,1022.79
2022-11-06T12:12:20.038Z,1022.79
2022-11-06T12:13:20.689Z,1022.84
2022-11-06T12:14:21.288Z,1022.83